Portada
METAR-TAF:

METAR-TAF

Aeropuertos :

Trípoli, Libia

Aeropuerto Internacional Mitiga

latitud: 32-54N, longitud: 13-17E, altitud: 11 m

Observación

El informe se hizo hace 39 minutos, a las 18:50 UTC
Viento 5 kt del este-noreste
Temperatura 28°C
Humedad 74%
Presión 1016 hPa
Visibilidad: 8000 m
Cielo despejado

METAR: HLLM 171850Z 06005KT 8000 SKC 28/23 Q1016

Hora: 21:29 (19:29 UTC)


TAF: falta

Observaciones y pronósticos meteorológicos de más de 4000 aeropuertos (mensajes METAR y TAF).

Los puntos amarillos y rojos representan las estaciones disponibles.

Ponga el ratón en el punto deseado para ver el nombre de la estación.

Haga clic para ver las observaciones y los pronósticos meteorológicos.

Para cambiar el mapa : haga clic en los botones verdes con una cruz de color negro para hacer un zoom, en el botón verde con un guión para alejar o en las flechas verdes para mapas adyacentes.


METAR-TAF: